Time;durP1;ratioP1;P1;durP2;ratioP2;P2;SDS_P1;SDS_P2;PMS_P1;PMS_P2;Temp;Humidity;BMP_temperature;BMP_pressure;BME280_temperature;BME280_humidity;BME280_pressure;Samples;Min_cycle;Max_cycle;Signal;HPM_P1;HPM_P2
2022/03/30 00:02:03;;;;;;;15.10;9.90;;;;;;;;;;5026572;28;20234;-76
2022/03/30 00:04:30;;;;;;;13.18;9.52;;;;;;;;;;5028211;28;20200;-76
2022/03/30 00:06:58;;;;;;;10.48;8.93;;;;;;;;;;5023746;28;20536;-76
2022/03/30 00:09:25;;;;;;;13.63;9.48;;;;;;;;;;5027921;28;20646;-77
2022/03/30 00:11:53;;;;;;;18.63;9.80;;;;;;;;;;5017591;28;20188;-76
2022/03/30 00:14:20;;;;;;;14.07;9.38;;;;;;;;;;5027364;28;20202;-76
2022/03/30 00:16:48;;;;;;;14.18;10.27;;;;;;;;;;5026647;28;20249;-77
2022/03/30 00:19:16;;;;;;;18.83;10.52;;;;;;;;;;5026139;28;20282;-76
2022/03/30 00:21:43;;;;;;;16.77;9.80;;;;;;;;;;5012776;28;20200;-78
2022/03/30 00:24:10;;;;;;;15.77;8.93;;;;;;;;;;5024607;28;20223;-78
2022/03/30 00:26:37;;;;;;;13.32;8.40;;;;;;;;;;5027504;28;20265;-78
2022/03/30 00:29:04;;;;;;;12.82;9.63;;;;;;;;;;5016519;28;20207;-78
2022/03/30 00:31:31;;;;;;;16.10;10.35;;;;;;;;;;5019942;28;20662;-78
2022/03/30 00:33:58;;;;;;;12.27;8.57;;;;;;;;;;5026009;28;20618;-76
2022/03/30 00:36:27;;;;;;;11.23;8.43;;;;;;;;;;5017182;28;20255;-76
2022/03/30 00:38:54;;;;;;;21.77;9.40;;;;;;;;;;5024425;28;20267;-78
2022/03/30 00:41:21;;;;;;;14.90;9.38;;;;;;;;;;5026420;28;20196;-78
2022/03/30 00:43:48;;;;;;;13.65;7.25;;;;;;;;;;5027990;28;20195;-79
2022/03/30 00:46:16;;;;;;;13.25;9.18;;;;;;;;;;5025782;28;20543;-77
2022/03/30 00:48:43;;;;;;;11.65;8.75;;;;;;;;;;5024360;28;20196;-78
2022/03/30 00:51:10;;;;;;;14.32;8.73;;;;;;;;;;5026667;28;20188;-78
2022/03/30 00:53:39;;;;;;;11.77;8.68;;;;;;;;;;5021283;28;20726;-78
2022/03/30 00:56:07;;;;;;;16.08;9.00;;;;;;;;;;5023405;28;20204;-79
2022/03/30 00:58:35;;;;;;;10.68;8.27;;;;;;;;;;5022231;28;20216;-79
2022/03/30 01:01:02;;;;;;;12.57;8.15;;;;;;;;;;5024808;28;20214;-78
2022/03/30 01:03:29;;;;;;;14.52;10.32;;;;;;;;;;5024106;28;21352;-78
2022/03/30 01:05:56;;;;;;;16.42;10.18;;;;;;;;;;5027758;28;20245;-79
2022/03/30 01:08:23;;;;;;;10.88;9.00;;;;;;;;;;5026378;28;20202;-78
2022/03/30 01:10:51;;;;;;;14.10;9.10;;;;;;;;;;5028050;28;20199;-78
2022/03/30 01:13:18;;;;;;;15.13;8.85;;;;;;;;;;5029566;28;20203;-79
2022/03/30 01:15:46;;;;;;;16.98;9.77;;;;;;;;;;5029131;28;20666;-77
2022/03/30 01:18:14;;;;;;;12.68;8.15;;;;;;;;;;5027294;28;20246;-77
2022/03/30 01:20:41;;;;;;;17.27;9.10;;;;;;;;;;5030242;28;20601;-77
2022/03/30 01:23:10;;;;;;;15.82;9.35;;;;;;;;;;5027980;28;20210;-76
2022/03/30 01:25:37;;;;;;;10.85;8.60;;;;;;;;;;5028029;28;20281;-76
2022/03/30 01:28:04;;;;;;;15.15;8.23;;;;;;;;;;5033024;28;20203;-76
2022/03/30 01:33:16;;;;;;;13.35;8.50;;;;;;;;;;5026323;28;20213;-77
2022/03/30 01:35:43;;;;;;;12.38;7.95;;;;;;;;;;5027320;28;20606;-77
2022/03/30 01:38:11;;;;;;;12.95;8.05;;;;;;;;;;5028258;28;20226;-76
2022/03/30 01:40:38;;;;;;;10.15;7.80;;;;;;;;;;5025472;28;20203;-78
2022/03/30 01:43:06;;;;;;;15.27;9.10;;;;;;;;;;5029098;28;20196;-77
2022/03/30 01:45:33;;;;;;;11.40;8.48;;;;;;;;;;5031316;28;20258;-79
2022/03/30 01:48:01;;;;;;;14.85;8.70;;;;;;;;;;5026734;28;20203;-80
2022/03/30 01:50:29;;;;;;;11.30;7.03;;;;;;;;;;5027898;28;20200;-78
2022/03/30 01:52:56;;;;;;;13.73;9.45;;;;;;;;;;5022598;28;20200;-78
2022/03/30 01:55:25;;;;;;;10.60;9.15;;;;;;;;;;5023016;28;20269;-77
2022/03/30 01:57:52;;;;;;;13.05;8.30;;;;;;;;;;5018879;28;20216;-77
2022/03/30 02:00:19;;;;;;;11.98;7.85;;;;;;;;;;5030212;28;20253;-77
2022/03/30 02:02:47;;;;;;;13.00;9.18;;;;;;;;;;5030753;28;20199;-76
2022/03/30 02:05:16;;;;;;;12.13;9.45;;;;;;;;;;5028930;28;20200;-76
2022/03/30 02:07:43;;;;;;;13.10;8.80;;;;;;;;;;5021788;28;20199;-76
2022/03/30 02:10:10;;;;;;;10.95;8.02;;;;;;;;;;5022714;28;20196;-76
2022/03/30 02:12:39;;;;;;;13.93;8.23;;;;;;;;;;5028021;28;20195;-76
2022/03/30 02:15:07;;;;;;;13.63;8.20;;;;;;;;;;5028383;28;20206;-77
2022/03/30 02:17:34;;;;;;;13.90;8.65;;;;;;;;;;5024086;28;20610;-77
2022/03/30 02:20:02;;;;;;;12.63;8.88;;;;;;;;;;5024238;28;20265;-77
2022/03/30 02:22:29;;;;;;;21.50;8.40;;;;;;;;;;5024899;28;20282;-77
2022/03/30 02:24:56;;;;;;;12.48;9.45;;;;;;;;;;5025674;28;20281;-76
2022/03/30 02:27:25;;;;;;;13.75;8.95;;;;;;;;;;5030114;28;20203;-77
2022/03/30 02:29:54;;;;;;;12.77;8.88;;;;;;;;;;5030037;28;20196;-78
2022/03/30 02:32:21;;;;;;;12.73;8.88;;;;;;;;;;5026564;28;20696;-78
2022/03/30 02:34:48;;;;;;;13.68;10.38;;;;;;;;;;5025748;28;20191;-77
2022/03/30 02:37:15;;;;;;;13.35;8.70;;;;;;;;;;5029154;28;20207;-76
2022/03/30 02:39:42;;;;;;;13.30;8.50;;;;;;;;;;5021179;28;20220;-76
2022/03/30 02:42:09;;;;;;;18.55;9.73;;;;;;;;;;5026675;28;20265;-76
2022/03/30 02:44:37;;;;;;;10.48;7.70;;;;;;;;;;5029299;28;20191;-78
2022/03/30 02:47:06;;;;;;;14.88;9.55;;;;;;;;;;5027218;28;20203;-77
2022/03/30 02:49:33;;;;;;;15.40;9.15;;;;;;;;;;5026721;28;20654;-79
2022/03/30 02:52:00;;;;;;;19.15;8.93;;;;;;;;;;5030411;28;20233;-77
2022/03/30 02:54:27;;;;;;;13.98;8.43;;;;;;;;;;5028578;28;20257;-78
2022/03/30 02:56:54;;;;;;;11.60;7.95;;;;;;;;;;5028238;28;20204;-79
2022/03/30 02:59:21;;;;;;;13.60;8.80;;;;;;;;;;5027431;28;20253;-79
2022/03/30 03:01:49;;;;;;;13.35;8.95;;;;;;;;;;5030874;28;20192;-80
2022/03/30 03:04:17;;;;;;;12.27;8.73;;;;;;;;;;5023908;28;20250;-79
2022/03/30 03:06:44;;;;;;;12.60;8.55;;;;;;;;;;5027905;28;20658;-79
2022/03/30 03:09:11;;;;;;;11.57;8.40;;;;;;;;;;5029622;28;20196;-79
2022/03/30 03:11:38;;;;;;;11.82;8.80;;;;;;;;;;5029555;28;20708;-79
2022/03/30 03:14:07;;;;;;;15.18;8.77;;;;;;;;;;5024730;28;20201;-80
2022/03/30 03:16:34;;;;;;;11.57;7.93;;;;;;;;;;5027541;28;20286;-78
2022/03/30 03:19:02;;;;;;;14.00;10.02;;;;;;;;;;5025199;28;20215;-78
2022/03/30 03:21:30;;;;;;;15.10;9.20;;;;;;;;;;5028989;28;20611;-80
2022/03/30 03:23:57;;;;;;;14.82;8.30;;;;;;;;;;5029700;28;20215;-79
2022/03/30 03:26:24;;;;;;;12.27;8.35;;;;;;;;;;5020311;28;20199;-80
2022/03/30 03:28:51;;;;;;;10.52;7.50;;;;;;;;;;5027865;28;20212;-79
2022/03/30 03:31:18;;;;;;;13.50;9.75;;;;;;;;;;5022728;28;20195;-78
2022/03/30 03:33:45;;;;;;;14.32;9.30;;;;;;;;;;5026211;28;20250;-77
2022/03/30 03:36:12;;;;;;;8.70;7.72;;;;;;;;;;5024382;28;20199;-79
2022/03/30 03:38:41;;;;;;;13.80;8.45;;;;;;;;;;5029198;28;20223;-79
2022/03/30 03:41:08;;;;;;;14.57;9.73;;;;;;;;;;5021401;28;20207;-78
2022/03/30 03:43:36;;;;;;;14.07;8.57;;;;;;;;;;5028623;28;20191;-79
2022/03/30 03:46:03;;;;;;;15.55;9.77;;;;;;;;;;5020658;28;20203;-77
2022/03/30 03:48:30;;;;;;;13.05;10.70;;;;;;;;;;5019903;28;20203;-78
2022/03/30 03:50:57;;;;;;;14.32;9.73;;;;;;;;;;5030474;28;20187;-79
2022/03/30 03:53:24;;;;;;;12.05;7.72;;;;;;;;;;5023656;28;20279;-79
2022/03/30 03:55:53;;;;;;;20.55;9.38;;;;;;;;;;5015922;28;20196;-79
2022/03/30 03:58:20;;;;;;;13.77;9.25;;;;;;;;;;5024409;28;20380;-79
2022/03/30 04:00:48;;;;;;;11.23;8.48;;;;;;;;;;5022320;28;20199;-79
2022/03/30 04:03:15;;;;;;;12.90;8.57;;;;;;;;;;5019075;28;20932;-79
2022/03/30 04:05:42;;;;;;;17.63;9.70;;;;;;;;;;5027849;28;20203;-80
2022/03/30 04:08:10;;;;;;;10.98;8.40;;;;;;;;;;5020290;28;20204;-79
2022/03/30 04:10:37;;;;;;;14.07;9.82;;;;;;;;;;5026790;28;20219;-79
2022/03/30 04:13:06;;;;;;;10.32;7.50;;;;;;;;;;5023137;28;20203;-80
2022/03/30 04:15:33;;;;;;;10.18;7.85;;;;;;;;;;5024192;28;20195;-79
2022/03/30 04:18:00;;;;;;;16.15;9.80;;;;;;;;;;5027290;28;20821;-80
2022/03/30 04:20:27;;;;;;;11.40;7.90;;;;;;;;;;5026115;28;20258;-80
2022/03/30 04:22:54;;;;;;;8.43;7.28;;;;;;;;;;5027082;28;20581;-79
2022/03/30 04:25:22;;;;;;;14.10;8.82;;;;;;;;;;5019858;28;20226;-77
2022/03/30 04:27:49;;;;;;;13.73;8.77;;;;;;;;;;5029921;28;20265;-77
2022/03/30 04:30:18;;;;;;;14.88;8.13;;;;;;;;;;5027092;28;20196;-78
2022/03/30 04:32:46;;;;;;;10.40;7.70;;;;;;;;;;5026691;28;20245;-79
2022/03/30 04:35:13;;;;;;;10.20;7.63;;;;;;;;;;5027036;28;20222;-78
2022/03/30 04:37:42;;;;;;;12.50;9.43;;;;;;;;;;5024365;28;20651;-78
2022/03/30 04:40:09;;;;;;;14.75;9.13;;;;;;;;;;5022508;28;20270;-79
2022/03/30 04:42:36;;;;;;;12.15;8.52;;;;;;;;;;5028599;28;20195;-79
2022/03/30 04:45:03;;;;;;;14.10;9.20;;;;;;;;;;5031889;28;20196;-83
2022/03/30 04:47:32;;;;;;;10.30;7.20;;;;;;;;;;5030055;28;20246;-83
2022/03/30 04:49:59;;;;;;;17.92;9.73;;;;;;;;;;5023664;28;20349;-83
2022/03/30 04:52:26;;;;;;;15.98;9.43;;;;;;;;;;5024829;28;20253;-84
2022/03/30 04:54:54;;;;;;;16.15;8.95;;;;;;;;;;5027052;28;20199;-83
2022/03/30 04:57:21;;;;;;;17.88;8.45;;;;;;;;;;5032708;28;20195;-86
2022/03/30 04:59:48;;;;;;;13.02;9.32;;;;;;;;;;5028868;28;20217;-84
2022/03/30 05:02:15;;;;;;;11.65;8.43;;;;;;;;;;5028996;28;20207;-87
2022/03/30 05:04:44;;;;;;;14.35;9.07;;;;;;;;;;5021082;28;20239;-86
2022/03/30 05:07:11;;;;;;;11.55;8.32;;;;;;;;;;5031885;28;20250;-86
2022/03/30 05:09:38;;;;;;;13.02;9.13;;;;;;;;;;5027961;28;20203;-84
2022/03/30 05:12:05;;;;;;;15.40;8.82;;;;;;;;;;5030787;28;20191;-86
2022/03/30 05:14:33;;;;;;;12.40;8.35;;;;;;;;;;5032474;28;20196;-84
2022/03/30 05:17:00;;;;;;;17.80;10.13;;;;;;;;;;5029386;28;20666;-83
2022/03/30 05:19:27;;;;;;;10.90;8.15;;;;;;;;;;5028460;28;20470;-83
2022/03/30 05:21:56;;;;;;;12.85;9.88;;;;;;;;;;5027010;28;20258;-82
2022/03/30 05:24:23;;;;;;;13.70;9.90;;;;;;;;;;5029852;28;20728;-84
2022/03/30 05:26:50;;;;;;;15.02;8.25;;;;;;;;;;5030565;28;20211;-85
2022/03/30 05:29:17;;;;;;;23.52;9.98;;;;;;;;;;5034734;28;20269;-79
2022/03/30 05:31:45;;;;;;;13.20;9.15;;;;;;;;;;5030788;28;20201;-77
2022/03/30 05:34:12;;;;;;;16.67;8.55;;;;;;;;;;5025152;28;20334;-80
2022/03/30 05:36:39;;;;;;;11.05;8.60;;;;;;;;;;5022180;28;20254;-79
2022/03/30 05:39:07;;;;;;;14.65;8.98;;;;;;;;;;5020748;28;20470;-78
2022/03/30 05:41:34;;;;;;;13.25;8.00;;;;;;;;;;5026478;28;20200;-79
2022/03/30 05:44:02;;;;;;;15.73;8.60;;;;;;;;;;5027344;28;20188;-79
2022/03/30 05:46:29;;;;;;;14.10;8.90;;;;;;;;;;5031456;28;20196;-77
2022/03/30 05:48:57;;;;;;;13.93;8.95;;;;;;;;;;5030767;28;20207;-77
2022/03/30 05:51:24;;;;;;;10.55;8.45;;;;;;;;;;5028482;28;20274;-77
2022/03/30 05:53:51;;;;;;;11.82;9.02;;;;;;;;;;5023100;28;20188;-77
2022/03/30 05:56:59;;;;;;;12.57;7.97;;;;;;;;;;5025033;28;20647;-77
2022/03/30 05:59:06;;;;;;;10.30;8.13;;;;;;;;;;5020829;28;20302;-77
2022/03/30 06:01:34;;;;;;;17.25;8.75;;;;;;;;;;5029815;28;20192;-76
2022/03/30 06:04:01;;;;;;;14.18;8.90;;;;;;;;;;5023001;28;20210;-77
2022/03/30 06:06:28;;;;;;;9.90;7.80;;;;;;;;;;5019006;28;20287;-76
2022/03/30 06:08:55;;;;;;;10.75;7.97;;;;;;;;;;5029163;28;20196;-76
2022/03/30 06:11:23;;;;;;;20.60;9.63;;;;;;;;;;5028333;28;20241;-76
2022/03/30 06:13:50;;;;;;;13.60;8.98;;;;;;;;;;5028355;28;20196;-77
2022/03/30 06:16:17;;;;;;;14.10;9.75;;;;;;;;;;5030077;28;20250;-76
2022/03/30 06:18:45;;;;;;;12.15;8.98;;;;;;;;;;5025420;28;20196;-77
2022/03/30 06:21:12;;;;;;;19.10;9.15;;;;;;;;;;5029582;28;20188;-77
2022/03/30 06:23:39;;;;;;;15.73;10.70;;;;;;;;;;5029352;28;20634;-77
2022/03/30 06:26:06;;;;;;;13.50;8.48;;;;;;;;;;5023689;28;20222;-76
2022/03/30 06:28:34;;;;;;;14.65;9.38;;;;;;;;;;5026384;28;20630;-76
2022/03/30 06:31:01;;;;;;;12.23;9.77;;;;;;;;;;5024776;28;20196;-76
2022/03/30 06:33:29;;;;;;;15.38;9.30;;;;;;;;;;5018005;28;20200;-77
2022/03/30 06:35:56;;;;;;;13.50;9.45;;;;;;;;;;5028672;28;20223;-77
2022/03/30 06:38:24;;;;;;;12.55;8.57;;;;;;;;;;5028802;28;20196;-77
2022/03/30 06:40:51;;;;;;;9.13;8.07;;;;;;;;;;5020543;28;20239;-77
2022/03/30 06:43:18;;;;;;;14.15;8.15;;;;;;;;;;5031089;28;20658;-76
2022/03/30 06:45:47;;;;;;;11.52;8.30;;;;;;;;;;5020871;28;20196;-77
2022/03/30 06:48:14;;;;;;;11.52;7.28;;;;;;;;;;5030490;28;20665;-77
2022/03/30 06:50:41;;;;;;;13.68;7.85;;;;;;;;;;5022895;28;20249;-76
2022/03/30 06:53:10;;;;;;;10.93;7.53;;;;;;;;;;5023495;28;20192;-76
2022/03/30 06:55:38;;;;;;;11.60;6.88;;;;;;;;;;5020883;28;20203;-76
2022/03/30 06:58:05;;;;;;;9.52;8.05;;;;;;;;;;5029540;28;20196;-76
2022/03/30 07:00:32;;;;;;;15.93;8.45;;;;;;;;;;5026535;28;20249;-76
2022/03/30 07:03:01;;;;;;;15.35;8.18;;;;;;;;;;5026448;28;20249;-77
2022/03/30 07:05:28;;;;;;;13.90;7.35;;;;;;;;;;5024969;28;20215;-76
2022/03/30 07:10:40;;;;;;;10.00;7.05;;;;;;;;;;5030187;28;20294;-76
2022/03/30 07:13:07;;;;;;;11.13;7.57;;;;;;;;;;5027879;28;20191;-78
2022/03/30 07:15:34;;;;;;;8.68;6.30;;;;;;;;;;5027732;28;20214;-78
2022/03/30 07:18:03;;;;;;;9.77;7.72;;;;;;;;;;5026969;28;20199;-78
2022/03/30 07:20:31;;;;;;;14.15;7.68;;;;;;;;;;5026279;28;20233;-78
2022/03/30 07:22:58;;;;;;;6.97;6.25;;;;;;;;;;5028593;28;20248;-78
2022/03/30 07:25:26;;;;;;;8.05;6.70;;;;;;;;;;5023545;28;20690;-78
2022/03/30 07:27:55;;;;;;;8.82;6.20;;;;;;;;;;5024370;28;20196;-78
2022/03/30 07:30:23;;;;;;;9.20;5.80;;;;;;;;;;5025344;28;20211;-78
2022/03/30 07:32:51;;;;;;;11.48;6.50;;;;;;;;;;5025444;28;20241;-78
2022/03/30 07:35:20;;;;;;;9.13;5.90;;;;;;;;;;5022318;28;20293;-78
2022/03/30 07:37:47;;;;;;;10.23;6.13;;;;;;;;;;5031081;28;20207;-78
2022/03/30 07:40:16;;;;;;;7.65;6.60;;;;;;;;;;5025384;28;20269;-78
2022/03/30 07:42:43;;;;;;;10.35;7.55;;;;;;;;;;5030289;28;20651;-78
2022/03/30 07:45:11;;;;;;;8.55;6.18;;;;;;;;;;5030812;28;20443;-78
2022/03/30 07:47:38;;;;;;;9.85;7.15;;;;;;;;;;5030593;28;20195;-76
2022/03/30 07:50:07;;;;;;;8.27;6.05;;;;;;;;;;5026497;28;20207;-76
2022/03/30 07:52:35;;;;;;;8.93;5.78;;;;;;;;;;5028059;28;20409;-76
2022/03/30 07:55:03;;;;;;;7.00;5.32;;;;;;;;;;5019053;28;20188;-76
2022/03/30 07:57:30;;;;;;;7.82;5.68;;;;;;;;;;5020895;28;20195;-77
2022/03/30 07:59:58;;;;;;;7.32;5.28;;;;;;;;;;5027272;28;20226;-76
2022/03/30 08:02:25;;;;;;;11.65;5.82;;;;;;;;;;5018543;28;20192;-76
2022/03/30 08:04:53;;;;;;;6.63;4.65;;;;;;;;;;5018635;28;20192;-77
2022/03/30 08:07:21;;;;;;;7.32;4.97;;;;;;;;;;5029221;28;20226;-76
2022/03/30 08:09:49;;;;;;;8.70;5.85;;;;;;;;;;5027851;28;20242;-76
2022/03/30 08:12:17;;;;;;;6.97;5.32;;;;;;;;;;5026577;28;20589;-77
2022/03/30 08:14:44;;;;;;;14.80;7.28;;;;;;;;;;5029601;28;20203;-77
2022/03/30 08:17:11;;;;;;;7.05;5.00;;;;;;;;;;5019245;28;20188;-76
2022/03/30 08:19:38;;;;;;;4.75;4.10;;;;;;;;;;5025317;28;20217;-77
2022/03/30 08:24:52;;;;;;;9.43;4.93;;;;;;;;;;5033409;28;20222;-76
2022/03/30 08:27:20;;;;;;;7.07;4.82;;;;;;;;;;5022278;28;20231;-76
2022/03/30 08:29:47;;;;;;;9.43;5.55;;;;;;;;;;5030820;28;20202;-76
2022/03/30 08:32:14;;;;;;;6.65;4.70;;;;;;;;;;5030743;28;20203;-76
2022/03/30 08:34:42;;;;;;;5.55;4.85;;;;;;;;;;5024723;28;20199;-75
2022/03/30 08:37:09;;;;;;;5.07;4.15;;;;;;;;;;5032772;28;20696;-76
2022/03/30 08:39:36;;;;;;;7.95;4.75;;;;;;;;;;5031589;28;20195;-77
2022/03/30 08:42:05;;;;;;;7.43;4.93;;;;;;;;;;5027189;28;20268;-76
2022/03/30 08:44:33;;;;;;;5.97;3.90;;;;;;;;;;5039859;28;20669;-76
2022/03/30 08:47:00;;;;;;;7.03;4.03;;;;;;;;;;5029192;28;20230;-76
2022/03/30 08:49:27;;;;;;;7.78;4.80;;;;;;;;;;5030691;28;20199;-78
2022/03/30 08:51:55;;;;;;;6.55;4.90;;;;;;;;;;5030392;28;20206;-78
2022/03/30 08:54:22;;;;;;;5.93;4.38;;;;;;;;;;5027296;28;20244;-78
2022/03/30 08:56:49;;;;;;;7.22;4.10;;;;;;;;;;5030537;28;20204;-77
2022/03/30 08:59:19;;;;;;;6.80;5.30;;;;;;;;;;5029906;28;20270;-77
2022/03/30 09:01:46;;;;;;;11.98;6.45;;;;;;;;;;5031627;28;20266;-77
2022/03/30 09:04:15;;;;;;;10.15;5.15;;;;;;;;;;5030782;28;20196;-78
2022/03/30 09:06:44;;;;;;;5.68;4.28;;;;;;;;;;5033187;28;20535;-77
2022/03/30 09:09:11;;;;;;;7.60;4.50;;;;;;;;;;5032698;28;20912;-77
2022/03/30 09:11:45;;;;;;;11.07;4.43;;;;;;;;;;5029919;28;20746;-77
2022/03/30 09:14:12;;;;;;;11.00;4.82;;;;;;;;;;5026322;28;20562;-77
2022/03/30 09:16:42;;;;;;;7.10;4.00;;;;;;;;;;5043421;28;20229;-77
2022/03/30 09:19:09;;;;;;;12.02;4.57;;;;;;;;;;5052406;28;20198;-77
2022/03/30 09:21:46;;;;;;;6.85;4.55;;;;;;;;;;5029196;28;20227;-77
2022/03/30 09:24:14;;;;;;;5.18;3.72;;;;;;;;;;5032739;28;20219;-76
2022/03/30 09:26:42;;;;;;;8.57;4.50;;;;;;;;;;5014517;28;20315;-78
2022/03/30 09:29:09;;;;;;;7.28;4.53;;;;;;;;;;5015465;28;20192;-79
2022/03/30 09:31:36;;;;;;;10.00;4.65;;;;;;;;;;5030652;28;20667;-86
2022/03/30 09:34:06;;;;;;;6.32;4.65;;;;;;;;;;5028217;28;20192;-81
2022/03/30 09:36:34;;;;;;;5.70;3.67;;;;;;;;;;5029025;28;20214;-87
2022/03/30 09:39:01;;;;;;;11.80;5.43;;;;;;;;;;5030790;28;20230;-78
2022/03/30 09:41:45;;;;;;;6.72;3.85;;;;;;;;;;5029132;28;20220;-83
2022/03/30 09:44:12;;;;;;;7.90;4.65;;;;;;;;;;5030879;28;20612;-81
2022/03/30 09:46:51;;;;;;;6.07;5.47;;;;;;;;;;5033672;28;20249;-79
2022/03/30 09:49:33;;;;;;;11.70;5.80;;;;;;;;;;5025195;28;20646;-80
2022/03/30 09:52:00;;;;;;;10.30;5.25;;;;;;;;;;5029426;28;20658;-78
2022/03/30 09:54:40;;;;;;;5.13;4.32;;;;;;;;;;5031926;28;20210;-78
2022/03/30 09:57:15;;;;;;;4.93;4.10;;;;;;;;;;5030625;28;20199;-79
2022/03/30 10:00:02;;;;;;;4.45;3.75;;;;;;;;;;5032429;28;20191;-74
2022/03/30 10:02:31;;;;;;;9.57;5.30;;;;;;;;;;5030660;28;20581;-79
2022/03/30 10:05:00;;;;;;;7.63;4.32;;;;;;;;;;5029371;28;20204;-78
2022/03/30 10:07:28;;;;;;;9.40;4.65;;;;;;;;;;5029196;28;20320;-78
2022/03/30 10:09:56;;;;;;;5.00;4.20;;;;;;;;;;5028481;28;20204;-79
2022/03/30 10:12:24;;;;;;;7.03;4.20;;;;;;;;;;5030284;28;20203;-79
2022/03/30 10:14:51;;;;;;;4.63;4.05;;;;;;;;;;5026641;28;20203;-79
2022/03/30 10:17:19;;;;;;;8.93;4.43;;;;;;;;;;5030812;28;20654;-79
2022/03/30 10:19:46;;;;;;;7.28;5.20;;;;;;;;;;5025129;28;20200;-79
2022/03/30 10:22:25;;;;;;;7.68;4.88;;;;;;;;;;5024769;28;20219;-79
2022/03/30 10:24:57;;;;;;;4.95;3.92;;;;;;;;;;5029333;28;20215;-79
2022/03/30 10:27:29;;;;;;;6.05;4.78;;;;;;;;;;5032568;28;20230;-79
2022/03/30 10:29:59;;;;;;;7.00;4.60;;;;;;;;;;5032041;28;20257;-79
2022/03/30 10:32:28;;;;;;;11.52;5.15;;;;;;;;;;5027038;28;20203;-78
2022/03/30 10:35:03;;;;;;;6.78;5.28;;;;;;;;;;5026851;28;20226;-78
2022/03/30 10:37:34;;;;;;;5.95;4.05;;;;;;;;;;5031620;28;20237;-79
2022/03/30 10:40:09;;;;;;;8.07;4.35;;;;;;;;;;5030815;28;20203;-79
2022/03/30 10:42:55;;;;;;;7.28;4.75;;;;;;;;;;5028793;28;20192;-78
2022/03/30 10:45:25;;;;;;;7.28;3.53;;;;;;;;;;5024442;28;20199;-78
2022/03/30 10:48:06;;;;;;;6.75;5.28;;;;;;;;;;5030338;28;20196;-79
2022/03/30 10:50:34;;;;;;;7.13;4.40;;;;;;;;;;5028720;28;20246;-78
2022/03/30 10:53:02;;;;;;;12.55;5.03;;;;;;;;;;5029070;28;20239;-79
2022/03/30 10:55:31;;;;;;;5.57;4.13;;;;;;;;;;5023751;28;20192;-79
2022/03/30 10:57:58;;;;;;;9.60;5.30;;;;;;;;;;5019681;28;20269;-78
2022/03/30 11:00:26;;;;;;;7.60;4.82;;;;;;;;;;5028052;28;20246;-78
2022/03/30 11:03:06;;;;;;;5.80;5.20;;;;;;;;;;5029817;28;20715;-78
2022/03/30 11:05:33;;;;;;;6.38;4.65;;;;;;;;;;5031405;28;20198;-78
2022/03/30 11:08:01;;;;;;;6.43;4.70;;;;;;;;;;5036890;28;20265;-78
2022/03/30 11:10:31;;;;;;;6.57;3.60;;;;;;;;;;5028573;28;20196;-77
2022/03/30 11:13:06;;;;;;;6.22;4.15;;;;;;;;;;5032601;28;20215;-78
2022/03/30 11:15:33;;;;;;;6.38;4.50;;;;;;;;;;5032055;28;20199;-78
2022/03/30 11:18:18;;;;;;;7.60;3.88;;;;;;;;;;5033876;28;20261;-79
2022/03/30 11:21:00;;;;;;;6.03;5.05;;;;;;;;;;5022424;28;20551;-79
2022/03/30 11:23:28;;;;;;;7.95;5.28;;;;;;;;;;5027906;28;20290;-77
2022/03/30 11:25:57;;;;;;;5.90;3.80;;;;;;;;;;5025393;28;20200;-83
2022/03/30 11:28:36;;;;;;;5.65;4.13;;;;;;;;;;5026702;28;20254;-82
2022/03/30 11:31:05;;;;;;;6.28;4.15;;;;;;;;;;5025150;28;20286;-82
2022/03/30 11:33:34;;;;;;;6.20;4.40;;;;;;;;;;5027436;28;20195;-78
2022/03/30 11:36:03;;;;;;;6.82;4.25;;;;;;;;;;5025361;28;20207;-79
2022/03/30 11:38:37;;;;;;;6.43;4.40;;;;;;;;;;5027029;28;20211;-79
2022/03/30 11:41:06;;;;;;;4.80;3.80;;;;;;;;;;5020408;28;20223;-83
2022/03/30 11:45:12;;;;;;;5.60;4.20;;;;;;;;;;5031860;28;20281;-80
2022/03/30 11:46:25;;;;;;;4.20;3.80;;;;;;;;;;5025425;28;20203;-79
2022/03/30 11:48:52;;;;;;;11.23;5.18;;;;;;;;;;5028767;28;20206;-80
2022/03/30 11:51:19;;;;;;;5.07;3.83;;;;;;;;;;5024880;28;20207;-80
2022/03/30 11:53:46;;;;;;;7.30;4.85;;;;;;;;;;5028056;28;20200;-79
2022/03/30 11:56:15;;;;;;;6.35;4.55;;;;;;;;;;5021302;28;20191;-81
2022/03/30 11:58:44;;;;;;;6.65;3.28;;;;;;;;;;5028399;28;20210;-81
2022/03/30 12:01:12;;;;;;;5.00;3.92;;;;;;;;;;5026249;28;20317;-76
2022/03/30 12:03:40;;;;;;;6.10;4.60;;;;;;;;;;5021531;28;20658;-79
2022/03/30 12:06:07;;;;;;;7.63;4.82;;;;;;;;;;5026211;28;20202;-78
2022/03/30 12:08:40;;;;;;;11.68;5.25;;;;;;;;;;5021230;28;20200;-78
2022/03/30 12:11:07;;;;;;;9.35;4.03;;;;;;;;;;5018192;28;20208;-78
2022/03/30 12:13:36;;;;;;;5.18;4.15;;;;;;;;;;5023934;28;20199;-82
2022/03/30 12:16:05;;;;;;;5.88;4.05;;;;;;;;;;5024396;28;20203;-82
2022/03/30 12:18:32;;;;;;;10.00;4.13;;;;;;;;;;5028101;28;20334;-81
2022/03/30 12:21:03;;;;;;;4.80;3.75;;;;;;;;;;5027315;28;20231;-80
2022/03/30 12:23:30;;;;;;;4.63;4.07;;;;;;;;;;5027393;28;20207;-79
2022/03/30 12:25:57;;;;;;;5.40;3.97;;;;;;;;;;5020992;28;20260;-81
2022/03/30 12:28:30;;;;;;;6.47;4.00;;;;;;;;;;5032523;28;20198;-82
2022/03/30 12:30:59;;;;;;;5.75;3.38;;;;;;;;;;5023825;28;20421;-82
2022/03/30 12:33:26;;;;;;;11.45;6.38;;;;;;;;;;5026839;28;20203;-78
2022/03/30 12:35:54;;;;;;;6.50;3.90;;;;;;;;;;5023243;28;20269;-79
2022/03/30 12:38:22;;;;;;;9.65;4.72;;;;;;;;;;5025902;28;20199;-82
2022/03/30 12:40:52;;;;;;;7.20;4.85;;;;;;;;;;5023679;28;20203;-83
2022/03/30 12:43:23;;;;;;;6.80;3.80;;;;;;;;;;5026431;28;20191;-81
2022/03/30 12:45:56;;;;;;;7.65;4.03;;;;;;;;;;5024189;28;20650;-80
2022/03/30 12:48:28;;;;;;;5.22;3.42;;;;;;;;;;5019718;28;20200;-84
2022/03/30 12:50:56;;;;;;;4.57;4.07;;;;;;;;;;5026258;28;20204;-86
2022/03/30 12:53:30;;;;;;;5.95;4.05;;;;;;;;;;5026316;28;20203;-81
2022/03/30 12:55:57;;;;;;;6.00;4.05;;;;;;;;;;5031199;28;20337;-83
2022/03/30 12:58:24;;;;;;;8.55;5.00;;;;;;;;;;5024114;28;20254;-83
2022/03/30 13:00:52;;;;;;;5.82;3.65;;;;;;;;;;5026993;28;20606;-85
2022/03/30 13:03:20;;;;;;;7.47;4.47;;;;;;;;;;5027254;28;20249;-81
2022/03/30 13:05:50;;;;;;;5.72;4.00;;;;;;;;;;5026227;28;20716;-80
2022/03/30 13:08:18;;;;;;;4.53;3.67;;;;;;;;;;5036547;28;20192;-81
2022/03/30 13:10:56;;;;;;;5.78;4.15;;;;;;;;;;5027449;28;20250;-83
2022/03/30 13:13:24;;;;;;;6.47;4.03;;;;;;;;;;5027728;28;20325;-79
2022/03/30 13:15:52;;;;;;;4.25;3.45;;;;;;;;;;5027578;28;20278;-86
2022/03/30 13:18:21;;;;;;;6.35;4.63;;;;;;;;;;5029385;28;20206;-80
2022/03/30 13:20:56;;;;;;;3.72;3.40;;;;;;;;;;5020510;28;20192;-80
2022/03/30 13:23:34;;;;;;;6.65;4.20;;;;;;;;;;5024496;28;20200;-75
2022/03/30 13:26:01;;;;;;;6.07;4.20;;;;;;;;;;5029666;28;20625;-75
2022/03/30 13:28:29;;;;;;;5.30;3.10;;;;;;;;;;5033724;28;20203;-77
2022/03/30 13:30:56;;;;;;;4.68;3.83;;;;;;;;;;5030583;28;20195;-78
2022/03/30 13:33:23;;;;;;;4.03;3.40;;;;;;;;;;5034095;28;20200;-77
2022/03/30 13:35:50;;;;;;;7.53;4.00;;;;;;;;;;5042214;28;20660;-78
2022/03/30 13:38:19;;;;;;;5.57;3.75;;;;;;;;;;5034298;28;20593;-77
2022/03/30 13:40:46;;;;;;;3.75;3.38;;;;;;;;;;5023137;28;20598;-77
2022/03/30 13:43:14;;;;;;;4.45;3.75;;;;;;;;;;5034140;28;20215;-77
2022/03/30 13:45:41;;;;;;;6.03;3.45;;;;;;;;;;5030959;28;20195;-78
2022/03/30 13:48:08;;;;;;;5.38;3.63;;;;;;;;;;5030420;28;20618;-77
2022/03/30 13:50:36;;;;;;;4.65;4.25;;;;;;;;;;5031747;28;20203;-77
2022/03/30 13:53:03;;;;;;;4.80;3.78;;;;;;;;;;5032099;28;20678;-77
2022/03/30 13:55:32;;;;;;;6.45;3.60;;;;;;;;;;5031576;28;20202;-77
2022/03/30 13:57:59;;;;;;;5.43;4.05;;;;;;;;;;5031793;28;20252;-77
2022/03/30 14:00:27;;;;;;;6.07;4.65;;;;;;;;;;5024488;28;20195;-80
2022/03/30 14:02:56;;;;;;;4.32;3.20;;;;;;;;;;5027161;28;20219;-82
2022/03/30 14:05:23;;;;;;;4.78;3.00;;;;;;;;;;5031684;28;20208;-82
2022/03/30 14:07:50;;;;;;;4.45;3.90;;;;;;;;;;5028575;28;20232;-81
2022/03/30 14:10:18;;;;;;;3.22;2.92;;;;;;;;;;5022164;28;20658;-79
2022/03/30 14:12:46;;;;;;;4.15;3.40;;;;;;;;;;5032135;28;20616;-78
2022/03/30 14:15:14;;;;;;;5.45;3.05;;;;;;;;;;5020405;28;20218;-79
2022/03/30 14:17:41;;;;;;;2.78;2.58;;;;;;;;;;5023401;28;20315;-76
2022/03/30 14:20:09;;;;;;;3.53;3.15;;;;;;;;;;5028965;28;20253;-79
2022/03/30 14:22:36;;;;;;;6.88;5.28;;;;;;;;;;5029539;28;20554;-78
2022/03/30 14:25:04;;;;;;;5.53;3.90;;;;;;;;;;5020049;28;20274;-77
2022/03/30 14:27:31;;;;;;;6.40;4.65;;;;;;;;;;5027306;28;20270;-79
2022/03/30 14:30:00;;;;;;;5.82;3.65;;;;;;;;;;5029945;28;20221;-78
2022/03/30 14:32:27;;;;;;;5.22;3.47;;;;;;;;;;5029134;28;20211;-78
2022/03/30 14:34:54;;;;;;;6.00;4.35;;;;;;;;;;5023248;28;20208;-84
2022/03/30 14:37:21;;;;;;;4.32;3.58;;;;;;;;;;5014020;28;20249;-81
2022/03/30 14:39:49;;;;;;;4.88;3.85;;;;;;;;;;5015203;28;20548;-85
2022/03/30 14:42:16;;;;;;;4.95;3.95;;;;;;;;;;5023536;28;20219;-82
2022/03/30 14:44:43;;;;;;;3.95;3.30;;;;;;;;;;5029399;28;20203;-81
2022/03/30 14:47:11;;;;;;;5.05;3.72;;;;;;;;;;5023287;28;20270;-84
2022/03/30 14:49:38;;;;;;;5.20;3.15;;;;;;;;;;5026968;28;20207;-85
2022/03/30 14:52:05;;;;;;;7.50;3.70;;;;;;;;;;5027949;28;20204;-85